Time;durP1;ratioP1;P1;durP2;ratioP2;P2;SDS_P1;SDS_P2;PMS_P1;PMS_P2;Temp;Humidity;BMP_temperature;BMP_pressure;BME280_temperature;BME280_humidity;BME280_pressure;Samples;Min_cycle;Max_cycle;Signal;HPM_P1;HPM_P2
2023/05/17 00:00:37;;;;;;;;;;;;;;;22.40;63.52;99061.59;4433417;32;34186;-78
2023/05/17 00:03:04;;;;;;;;;;;;;;;22.41;63.77;99063.34;4436203;32;34287;-79
2023/05/17 00:05:32;;;;;;;;;;;;;;;22.62;63.10;99058.63;4441327;32;33642;-79
2023/05/17 00:07:59;;;;;;;;;;;;;;;22.63;63.00;99065.66;4438107;32;34464;-78
2023/05/17 00:10:26;;;;;;;;;;;;;;;22.16;64.65;99063.69;4443176;32;32185;-79
2023/05/17 00:12:54;;;;;;;;;;;;;;;22.75;62.23;99068.97;4427589;32;34156;-79
2023/05/17 00:15:21;;;;;;;;;;;;;;;22.48;63.01;99059.69;4431058;32;33895;-79
2023/05/17 00:17:48;;;;;;;;;;;;;;;22.40;63.11;99072.16;4442002;32;34878;-79
2023/05/17 00:20:16;;;;;;;;;;;;;;;22.86;61.80;99071.44;4432568;32;33592;-79
2023/05/17 00:22:46;;;;;;;;;;;;;;;22.78;61.74;99068.91;4418949;32;34049;-79
2023/05/17 00:25:13;;;;;;;;;;;;;;;22.31;63.14;99064.37;4427695;32;34224;-79
2023/05/17 00:27:40;;;;;;;;;;;;;;;22.56;62.13;99067.50;4435388;32;34550;-79
2023/05/17 00:30:08;;;;;;;;;;;;;;;22.90;60.80;99078.41;4433792;32;33431;-79
2023/05/17 00:32:36;;;;;;;;;;;;;;;22.30;62.35;99070.56;4441146;32;34892;-79
2023/05/17 00:35:03;;;;;;;;;;;;;;;21.20;66.63;99066.53;4434653;32;33833;-79
2023/05/17 00:37:30;;;;;;;;;;;;;;;22.03;63.83;99067.38;4433613;32;33342;-79
2023/05/17 00:39:58;;;;;;;;;;;;;;;22.25;62.83;99067.09;4439538;32;33469;-79
2023/05/17 00:42:25;;;;;;;;;;;;;;;22.27;62.66;99065.31;4435588;32;34033;-79
2023/05/17 00:44:52;;;;;;;;;;;;;;;21.96;63.56;99057.78;4441421;32;34552;-79
2023/05/17 00:47:20;;;;;;;;;;;;;;;22.31;62.69;99056.44;4434571;32;34387;-79
2023/05/17 00:49:49;;;;;;;;;;;;;;;22.19;62.91;99063.66;4430148;32;33571;-79
2023/05/17 00:52:16;;;;;;;;;;;;;;;21.09;66.64;99070.19;4418561;32;32441;-79
2023/05/17 00:54:44;;;;;;;;;;;;;;;21.69;64.63;99057.28;4437624;32;33520;-78
2023/05/17 00:57:11;;;;;;;;;;;;;;;22.18;62.90;99067.16;4418903;32;32857;-79
2023/05/17 00:59:38;;;;;;;;;;;;;;;21.33;65.99;99069.94;4436906;32;33622;-80
2023/05/17 01:02:06;;;;;;;;;;;;;;;22.05;63.90;99068.22;4432526;32;34342;-80
2023/05/17 01:04:33;;;;;;;;;;;;;;;22.60;61.73;99069.22;4439811;32;34249;-79
2023/05/17 01:07:00;;;;;;;;;;;;;;;21.93;63.80;99063.13;4431811;32;34491;-79
2023/05/17 01:09:28;;;;;;;;;;;;;;;20.79;68.04;99077.47;4428842;32;33553;-78
2023/05/17 01:11:59;;;;;;;;;;;;;;;19.52;72.78;99086.87;4434769;32;35010;-79
2023/05/17 01:14:33;;;;;;;;;;;;;;;20.08;71.64;99088.41;4422091;32;34273;-78
2023/05/17 01:17:02;;;;;;;;;;;;;;;21.40;66.10;99082.16;4442531;32;35249;-79
2023/05/17 01:19:48;;;;;;;;;;;;;;;21.36;66.18;99074.28;4422088;32;33341;-80
2023/05/17 01:22:37;;;;;;;;;;;;;;;22.64;61.62;99077.94;4432444;32;34876;-79
2023/05/17 01:25:23;;;;;;;;;;;;;;;22.58;61.46;99082.44;4422381;32;34039;-79
2023/05/17 01:27:51;;;;;;;;;;;;;;;22.81;60.23;99077.69;4421370;32;32783;-80
2023/05/17 01:30:18;;;;;;;;;;;;;;;22.49;61.26;99077.28;4419723;32;33083;-79
2023/05/17 01:32:46;;;;;;;;;;;;;;;22.70;60.78;99080.50;4437256;32;34183;-78
2023/05/17 01:35:13;;;;;;;;;;;;;;;22.25;62.17;99067.09;4419830;32;34469;-79
2023/05/17 01:37:41;;;;;;;;;;;;;;;22.62;61.19;99063.91;4439421;32;33795;-79
2023/05/17 01:40:08;;;;;;;;;;;;;;;23.48;58.34;99054.50;4437185;32;33980;-79
2023/05/17 01:42:37;;;;;;;;;;;;;;;23.79;57.11;99043.31;4437711;32;33947;-80
2023/05/17 01:45:05;;;;;;;;;;;;;;;23.49;57.58;99024.53;4439988;32;33738;-79
2023/05/17 01:47:38;;;;;;;;;;;;;;;22.74;59.49;99030.25;4444304;32;33990;-79
2023/05/17 01:50:06;;;;;;;;;;;;;;;23.13;57.95;99021.69;4424965;32;33116;-79
2023/05/17 01:52:50;;;;;;;;;;;;;;;24.06;54.56;99010.09;4421829;32;33895;-79
2023/05/17 01:55:20;;;;;;;;;;;;;;;23.18;56.60;99014.56;4423706;32;32864;-79
2023/05/17 01:57:48;;;;;;;;;;;;;;;21.46;62.74;99018.03;4437274;32;33286;-79
2023/05/17 02:00:15;;;;;;;;;;;;;;;21.37;63.29;99024.22;4437675;32;33540;-79
2023/05/17 02:02:45;;;;;;;;;;;;;;;20.84;65.69;99037.94;4420926;32;34712;-78
2023/05/17 02:05:12;;;;;;;;;;;;;;;19.28;72.34;99033.53;4420740;32;33994;-79
2023/05/17 02:07:39;;;;;;;;;;;;;;;17.23;82.78;99042.75;4432915;32;34504;-79
2023/05/17 02:10:07;;;;;;;;;;;;;;;16.78;87.49;99044.19;4439069;32;34126;-79
2023/05/17 02:12:35;;;;;;;;;;;;;;;17.53;83.09;99047.28;4440211;32;33920;-79
2023/05/17 02:15:03;;;;;;;;;;;;;;;17.49;82.59;99051.62;4437477;32;33674;-79
2023/05/17 02:17:30;;;;;;;;;;;;;;;16.77;86.72;99048.53;4435837;32;32890;-79
2023/05/17 02:19:58;;;;;;;;;;;;;;;16.53;89.32;99049.19;4439558;32;33095;-79
2023/05/17 02:22:26;;;;;;;;;;;;;;;17.31;85.09;99059.41;4433720;32;32123;-79
2023/05/17 02:24:53;;;;;;;;;;;;;;;18.84;77.90;99055.47;4433476;32;34193;-79
2023/05/17 02:27:21;;;;;;;;;;;;;;;20.16;71.71;99065.59;4438729;32;34129;-80
2023/05/17 02:29:48;;;;;;;;;;;;;;;20.28;71.34;99069.03;4430446;32;31744;-78
2023/05/17 02:32:16;;;;;;;;;;;;;;;20.56;69.76;99060.06;4434198;32;34760;-79
2023/05/17 02:34:45;;;;;;;;;;;;;;;20.78;68.38;99067.81;4442352;32;33878;-79
2023/05/17 02:37:12;;;;;;;;;;;;;;;19.64;71.07;99078.94;4442207;32;34288;-80
2023/05/17 02:39:40;;;;;;;;;;;;;;;18.79;74.65;99093.94;4431141;32;34130;-79
2023/05/17 02:42:07;;;;;;;;;;;;;;;18.32;76.72;99097.38;4436623;32;34822;-79
2023/05/17 02:44:34;;;;;;;;;;;;;;;17.23;82.00;99100.34;4433568;32;34191;-80
2023/05/17 02:47:01;;;;;;;;;;;;;;;17.86;79.83;99093.72;4431814;32;34243;-79
2023/05/17 02:49:29;;;;;;;;;;;;;;;18.91;75.18;99099.22;4429395;32;33519;-79
2023/05/17 02:51:56;;;;;;;;;;;;;;;19.13;71.56;99104.47;4436454;32;34885;-78
2023/05/17 02:54:24;;;;;;;;;;;;;;;17.44;79.22;99104.84;4435106;32;33616;-79
2023/05/17 02:56:51;;;;;;;;;;;;;;;20.61;65.80;99100.41;4420546;32;33962;-78
2023/05/17 02:59:19;;;;;;;;;;;;;;;22.14;59.60;99101.53;4420985;32;33028;-79
2023/05/17 03:01:47;;;;;;;;;;;;;;;22.07;60.25;99094.56;4448206;32;34146;-79
2023/05/17 03:04:15;;;;;;;;;;;;;;;22.39;58.72;99096.81;4428415;32;34360;-79
2023/05/17 03:06:43;;;;;;;;;;;;;;;22.43;58.48;99092.38;4441288;32;34282;-79
2023/05/17 03:09:10;;;;;;;;;;;;;;;22.69;57.38;99089.31;4434162;32;34249;-79
2023/05/17 03:11:37;;;;;;;;;;;;;;;22.46;58.13;99090.53;4436817;32;33710;-79
2023/05/17 03:14:06;;;;;;;;;;;;;;;21.77;59.45;99100.22;4439031;32;34081;-79
2023/05/17 03:16:33;;;;;;;;;;;;;;;20.01;68.78;99097.22;4443360;32;34200;-79
2023/05/17 03:19:01;;;;;;;;;;;;;;;21.46;63.33;99106.72;4440821;32;33368;-79
2023/05/17 03:21:29;;;;;;;;;;;;;;;20.45;65.61;99113.66;4449439;32;34074;-79
2023/05/17 03:23:57;;;;;;;;;;;;;;;18.04;77.03;99113.91;4436949;32;34848;-78
2023/05/17 03:26:24;;;;;;;;;;;;;;;17.66;81.12;99113.69;4435415;32;32296;-79
2023/05/17 03:28:52;;;;;;;;;;;;;;;18.25;77.70;99117.44;4437396;32;33326;-80
2023/05/17 03:31:19;;;;;;;;;;;;;;;20.22;70.36;99112.00;4436621;32;33644;-79
2023/05/17 03:33:47;;;;;;;;;;;;;;;21.30;65.16;99117.37;4438527;32;34556;-79
2023/05/17 03:36:14;;;;;;;;;;;;;;;17.57;81.69;99121.50;4442766;32;34975;-79
2023/05/17 03:38:42;;;;;;;;;;;;;;;16.89;87.19;99134.13;4420591;32;33104;-78
2023/05/17 03:41:09;;;;;;;;;;;;;;;16.36;92.31;99134.41;4431788;32;34882;-79
2023/05/17 03:43:37;;;;;;;;;;;;;;;16.23;93.69;99126.47;4424674;32;32551;-78
2023/05/17 03:46:05;;;;;;;;;;;;;;;17.03;89.14;99129.84;4431218;32;32869;-79
2023/05/17 03:48:32;;;;;;;;;;;;;;;17.88;84.84;99139.16;4422356;32;33746;-79
2023/05/17 03:51:02;;;;;;;;;;;;;;;18.11;81.94;99141.00;4435453;32;35718;-79
2023/05/17 03:53:30;;;;;;;;;;;;;;;17.87;83.75;99147.87;4440628;32;33548;-79
2023/05/17 03:55:57;;;;;;;;;;;;;;;19.42;76.71;99157.81;4440969;32;33888;-79
2023/05/17 03:58:25;;;;;;;;;;;;;;;21.26;68.49;99157.81;4431769;32;34432;-79
2023/05/17 04:00:52;;;;;;;;;;;;;;;20.84;69.42;99152.00;4432718;32;33818;-79
2023/05/17 04:03:20;;;;;;;;;;;;;;;21.95;65.49;99162.41;4433171;32;33052;-79
2023/05/17 04:05:47;;;;;;;;;;;;;;;20.50;70.08;99165.34;4430199;32;33312;-80
2023/05/17 04:08:15;;;;;;;;;;;;;;;20.09;71.71;99161.16;4437402;32;34362;-79
2023/05/17 04:10:42;;;;;;;;;;;;;;;19.55;74.05;99179.69;4437373;32;33882;-79
2023/05/17 04:13:09;;;;;;;;;;;;;;;18.17;80.98;99179.47;4432277;32;33160;-79
2023/05/17 04:15:37;;;;;;;;;;;;;;;17.59;84.91;99182.62;4422773;32;33448;-79
2023/05/17 04:18:04;;;;;;;;;;;;;;;17.62;84.81;99178.28;4435203;32;33850;-79
2023/05/17 04:20:32;;;;;;;;;;;;;;;18.57;79.28;99175.22;4442720;32;33463;-79
2023/05/17 04:22:59;;;;;;;;;;;;;;;20.33;71.92;99167.19;4431927;32;32490;-79
2023/05/17 04:25:27;;;;;;;;;;;;;;;18.99;76.58;99175.34;4434397;32;34275;-80
2023/05/17 04:27:55;;;;;;;;;;;;;;;16.78;89.18;99174.94;4437304;32;33655;-79
2023/05/17 04:30:23;;;;;;;;;;;;;;;18.27;82.82;99183.88;4433846;32;34094;-78
2023/05/17 04:32:51;;;;;;;;;;;;;;;16.49;92.95;99185.97;4430429;32;33836;-79
2023/05/17 04:35:18;;;;;;;;;;;;;;;17.29;87.39;99189.41;4439286;32;33860;-78
2023/05/17 04:37:46;;;;;;;;;;;;;;;16.89;89.41;99194.28;4437512;32;33468;-79
2023/05/17 04:40:14;;;;;;;;;;;;;;;17.42;85.88;99212.19;4439466;32;34057;-78
2023/05/17 04:42:42;;;;;;;;;;;;;;;17.06;89.03;99218.84;4438338;32;33915;-79
2023/05/17 04:45:10;;;;;;;;;;;;;;;19.75;75.91;99221.72;4433559;32;34291;-78
2023/05/17 04:47:41;;;;;;;;;;;;;;;18.18;81.88;99216.16;4433651;32;33668;-78
2023/05/17 04:50:08;;;;;;;;;;;;;;;17.05;91.37;99226.69;4432892;32;34046;-79
2023/05/17 04:52:35;;;;;;;;;;;;;;;19.76;75.11;99238.34;4429278;32;34183;-78
2023/05/17 04:55:04;;;;;;;;;;;;;;;20.83;69.08;99223.97;4440561;32;33715;-79
2023/05/17 04:57:31;;;;;;;;;;;;;;;17.90;83.30;99240.47;4443133;32;34242;-78
2023/05/17 04:59:58;;;;;;;;;;;;;;;17.65;84.89;99237.66;4449134;32;34814;-79
2023/05/17 05:02:26;;;;;;;;;;;;;;;17.20;86.94;99246.91;4445231;32;34158;-78
2023/05/17 05:04:53;;;;;;;;;;;;;;;17.77;86.39;99250.84;4448135;32;34417;-78
2023/05/17 05:07:20;;;;;;;;;;;;;;;16.97;87.63;99250.16;4452421;32;32211;-79
2023/05/17 05:09:48;;;;;;;;;;;;;;;19.72;75.55;99247.09;4440262;32;34271;-79
2023/05/17 05:12:15;;;;;;;;;;;;;;;21.20;67.99;99242.12;4450572;32;34926;-79
2023/05/17 05:14:43;;;;;;;;;;;;;;;18.93;78.14;99239.19;4447962;32;34557;-79
2023/05/17 05:17:10;;;;;;;;;;;;;;;17.84;82.91;99242.19;4441466;32;33645;-79
2023/05/17 05:19:38;;;;;;;;;;;;;;;18.16;81.44;99236.25;4448252;32;34923;-79
2023/05/17 05:22:06;;;;;;;;;;;;;;;18.56;79.91;99228.56;4414520;32;33259;-79
2023/05/17 05:24:34;;;;;;;;;;;;;;;18.27;79.80;99237.19;4442505;32;33997;-79
2023/05/17 05:27:02;;;;;;;;;;;;;;;18.84;80.24;99245.28;4438888;32;34772;-79
2023/05/17 05:29:33;;;;;;;;;;;;;;;17.92;82.33;99259.69;4443100;32;34383;-79
2023/05/17 05:32:01;;;;;;;;;;;;;;;17.39;87.40;99253.19;4445960;32;34050;-79
2023/05/17 05:34:31;;;;;;;;;;;;;;;20.43;72.04;99247.81;4438174;32;33267;-78
2023/05/17 05:36:58;;;;;;;;;;;;;;;19.21;76.96;99252.34;4438142;32;33510;-79
2023/05/17 05:39:28;;;;;;;;;;;;;;;19.63;76.29;99255.84;4448158;32;34146;-79
2023/05/17 05:41:55;;;;;;;;;;;;;;;19.94;74.45;99261.13;4448229;32;34262;-78
2023/05/17 05:44:23;;;;;;;;;;;;;;;17.92;85.40;99264.94;4441331;32;34832;-79
2023/05/17 05:46:52;;;;;;;;;;;;;;;20.16;74.08;99264.56;4447723;32;31197;-79
2023/05/17 05:49:19;;;;;;;;;;;;;;;18.56;81.45;99270.53;4435841;32;33847;-79
2023/05/17 05:51:47;;;;;;;;;;;;;;;17.92;83.37;99270.19;4450147;32;33912;-78
2023/05/17 05:54:15;;;;;;;;;;;;;;;19.90;74.89;99277.78;4444664;32;34349;-78
2023/05/17 05:56:43;;;;;;;;;;;;;;;21.07;68.93;99272.06;4443227;32;33442;-78
2023/05/17 05:59:11;;;;;;;;;;;;;;;20.59;71.12;99272.28;4450012;32;34263;-79
2023/05/17 06:01:40;;;;;;;;;;;;;;;19.73;73.03;99281.28;4440962;32;33602;-79
2023/05/17 06:04:08;;;;;;;;;;;;;;;19.41;75.63;99269.00;4440663;32;34193;-79
2023/05/17 06:06:35;;;;;;;;;;;;;;;19.52;75.35;99276.00;4439676;32;33463;-78
2023/05/17 06:09:05;;;;;;;;;;;;;;;18.67;79.22;99274.03;4445324;32;34163;-78
2023/05/17 06:11:33;;;;;;;;;;;;;;;20.13;72.50;99281.22;4440230;32;33160;-78
2023/05/17 06:14:00;;;;;;;;;;;;;;;19.43;75.66;99277.75;4452131;32;35136;-78
2023/05/17 06:16:27;;;;;;;;;;;;;;;20.41;70.79;99273.25;4433310;32;33323;-78
2023/05/17 06:18:55;;;;;;;;;;;;;;;20.35;71.06;99270.63;4451401;32;34790;-78
2023/05/17 06:21:22;;;;;;;;;;;;;;;20.58;69.53;99266.16;4445830;32;34755;-78
2023/05/17 06:23:50;;;;;;;;;;;;;;;20.64;69.26;99272.31;4448467;32;34136;-78
2023/05/17 06:26:19;;;;;;;;;;;;;;;18.84;75.97;99270.66;4446766;32;33656;-78
2023/05/17 06:28:46;;;;;;;;;;;;;;;19.79;73.14;99281.25;4428236;32;33823;-79
2023/05/17 06:31:13;;;;;;;;;;;;;;;20.49;70.78;99274.06;4436813;32;33872;-79
2023/05/17 06:33:41;;;;;;;;;;;;;;;20.52;70.09;99274.09;4427271;32;32837;-79
2023/05/17 06:36:08;;;;;;;;;;;;;;;20.47;70.60;99291.63;4448902;32;33106;-80
2023/05/17 06:38:36;;;;;;;;;;;;;;;21.31;67.52;99281.59;4443212;32;32670;-79
2023/05/17 06:41:05;;;;;;;;;;;;;;;21.12;68.19;99281.69;4443350;32;33907;-79
2023/05/17 06:43:33;;;;;;;;;;;;;;;21.33;66.85;99285.09;4427763;32;33758;-78
2023/05/17 06:46:03;;;;;;;;;;;;;;;18.50;78.20;99301.94;4438148;32;32489;-79
2023/05/17 06:48:31;;;;;;;;;;;;;;;20.26;71.15;99302.22;4446546;32;33858;-79
2023/05/17 06:50:58;;;;;;;;;;;;;;;20.16;71.46;99312.75;4426688;32;794755;-79
2023/05/17 06:53:26;;;;;;;;;;;;;;;20.60;70.19;99318.81;4453633;32;34207;-79
2023/05/17 06:55:53;;;;;;;;;;;;;;;20.42;70.83;99317.09;4446703;32;34290;-79
2023/05/17 06:58:21;;;;;;;;;;;;;;;19.24;76.64;99312.75;4437533;32;34925;-79
2023/05/17 07:00:48;;;;;;;;;;;;;;;20.22;71.79;99325.00;4436393;32;33717;-80
2023/05/17 07:03:15;;;;;;;;;;;;;;;16.86;88.10;99331.16;4445965;32;34572;-80
2023/05/17 07:05:43;;;;;;;;;;;;;;;18.40;80.21;99329.87;4427945;32;32339;-80
2023/05/17 07:08:10;;;;;;;;;;;;;;;17.27;88.49;99335.09;4440605;32;33688;-80
2023/05/17 07:10:37;;;;;;;;;;;;;;;18.16;84.15;99337.63;4443040;32;33887;-80
2023/05/17 07:13:05;;;;;;;;;;;;;;;19.34;77.53;99332.91;4431424;32;34645;-80
2023/05/17 07:15:32;;;;;;;;;;;;;;;19.00;76.50;99334.56;4436004;32;33763;-80
2023/05/17 07:17:59;;;;;;;;;;;;;;;18.92;77.50;99342.41;4445491;32;34941;-79
2023/05/17 07:20:27;;;;;;;;;;;;;;;18.56;79.55;99343.97;4450429;32;34454;-80
2023/05/17 07:22:55;;;;;;;;;;;;;;;18.30;80.98;99335.09;4440739;32;34919;-80
2023/05/17 07:25:22;;;;;;;;;;;;;;;19.67;75.24;99332.94;4435746;32;33493;-79
2023/05/17 07:27:49;;;;;;;;;;;;;;;20.51;71.04;99324.94;4443008;32;33852;-79
2023/05/17 07:30:18;;;;;;;;;;;;;;;20.34;71.33;99326.75;4446638;32;35006;-80
2023/05/17 07:32:45;;;;;;;;;;;;;;;17.92;80.16;99333.06;4444906;32;35088;-79
2023/05/17 07:35:13;;;;;;;;;;;;;;;19.26;76.40;99337.25;4427277;32;34022;-80
2023/05/17 07:37:41;;;;;;;;;;;;;;;17.29;85.53;99335.97;4420603;32;34215;-79
2023/05/17 07:40:09;;;;;;;;;;;;;;;19.29;76.58;99326.75;4446225;32;34051;-80
2023/05/17 07:42:36;;;;;;;;;;;;;;;16.54;90.19;99346.41;4443474;32;34134;-79
2023/05/17 07:45:03;;;;;;;;;;;;;;;19.13;76.80;99335.47;4442953;32;33988;-79
2023/05/17 07:47:31;;;;;;;;;;;;;;;19.78;73.25;99347.84;4449998;32;33927;-79
2023/05/17 07:49:58;;;;;;;;;;;;;;;20.40;70.63;99350.44;4427133;32;34157;-79
2023/05/17 07:52:26;;;;;;;;;;;;;;;20.13;71.54;99343.47;4447820;32;34331;-79
2023/05/17 07:54:53;;;;;;;;;;;;;;;20.13;71.68;99349.59;4444258;32;34137;-80
2023/05/17 07:57:20;;;;;;;;;;;;;;;19.18;74.37;99349.47;4435359;32;34229;-80
2023/05/17 07:59:48;;;;;;;;;;;;;;;16.39;89.37;99359.25;4425047;32;34498;-79
2023/05/17 08:02:15;;;;;;;;;;;;;;;17.03;86.93;99354.88;4442800;32;34177;-80
2023/05/17 08:04:43;;;;;;;;;;;;;;;17.61;83.63;99356.34;4441782;32;33634;-79
2023/05/17 08:07:10;;;;;;;;;;;;;;;19.93;72.97;99356.59;4444049;32;34826;-80
2023/05/17 08:09:39;;;;;;;;;;;;;;;20.61;68.95;99360.91;4437152;32;33895;-78
2023/05/17 08:12:06;;;;;;;;;;;;;;;20.16;69.90;99360.09;4450312;32;34405;-78
2023/05/17 08:14:33;;;;;;;;;;;;;;;16.74;87.54;99377.16;4444706;32;33621;-79
2023/05/17 08:17:00;;;;;;;;;;;;;;;16.37;90.87;99371.44;4449246;32;34173;-78
2023/05/17 08:19:28;;;;;;;;;;;;;;;19.09;76.50;99362.59;4429601;32;33461;-79
2023/05/17 08:21:56;;;;;;;;;;;;;;;17.71;81.52;99363.41;4449660;32;34537;-79
2023/05/17 08:24:23;;;;;;;;;;;;;;;18.91;76.89;99364.28;4443325;32;33549;-79
2023/05/17 08:26:50;;;;;;;;;;;;;;;17.26;84.40;99362.13;4433739;32;34272;-79
2023/05/17 08:29:20;;;;;;;;;;;;;;;17.46;82.97;99371.06;4451009;32;34901;-78
2023/05/17 08:31:47;;;;;;;;;;;;;;;18.22;80.84;99367.34;4445608;32;33002;-79
2023/05/17 08:34:14;;;;;;;;;;;;;;;17.53;83.00;99371.13;4434869;32;32811;-79
2023/05/17 08:36:43;;;;;;;;;;;;;;;19.41;76.35;99378.41;4426338;32;34042;-80
2023/05/17 08:39:11;;;;;;;;;;;;;;;18.98;77.47;99381.78;4444921;32;34769;-79
2023/05/17 08:41:39;;;;;;;;;;;;;;;18.88;76.67;99382.63;4438849;32;35226;-79
2023/05/17 08:44:06;;;;;;;;;;;;;;;19.48;74.45;99384.56;4434219;32;33648;-79
2023/05/17 08:46:33;;;;;;;;;;;;;;;20.27;70.26;99377.63;4433563;32;34044;-79
2023/05/17 08:49:02;;;;;;;;;;;;;;;19.72;72.36;99379.41;4446420;32;34199;-79
2023/05/17 08:51:30;;;;;;;;;;;;;;;17.15;84.52;99395.12;4428708;32;34433;-79
2023/05/17 08:53:57;;;;;;;;;;;;;;;18.37;81.10;99379.69;4430638;32;33463;-80
2023/05/17 08:56:24;;;;;;;;;;;;;;;19.38;74.57;99379.28;4435784;32;33679;-81
2023/05/17 08:58:55;;;;;;;;;;;;;;;19.68;74.04;99376.72;4444671;32;34200;-79
2023/05/17 09:01:24;;;;;;;;;;;;;;;19.75;72.85;99383.75;4434736;32;34219;-81
2023/05/17 09:03:53;;;;;;;;;;;;;;;19.33;73.73;99380.16;4437733;32;34087;-82
2023/05/17 09:06:22;;;;;;;;;;;;;;;19.52;73.92;99391.59;4428675;32;34641;-83
2023/05/17 09:08:57;;;;;;;;;;;;;;;20.01;71.76;99381.13;4427360;32;34598;-81
2023/05/17 09:11:28;;;;;;;;;;;;;;;18.02;80.20;99372.47;4450812;32;34228;-82
2023/05/17 09:14:00;;;;;;;;;;;;;;;18.61;78.65;99373.72;4427209;32;33639;-82
2023/05/17 09:16:28;;;;;;;;;;;;;;;19.28;76.05;99367.03;4433645;32;34203;-81
2023/05/17 09:18:56;;;;;;;;;;;;;;;19.71;73.37;99367.09;4429491;32;34723;-82
2023/05/17 09:21:24;;;;;;;;;;;;;;;19.29;75.05;99370.50;4446388;32;35150;-82
2023/05/17 09:23:51;;;;;;;;;;;;;;;17.13;85.90;99375.91;4434764;32;33507;-81
2023/05/17 09:26:39;;;;;;;;;;;;;;;17.46;86.46;99371.06;4430994;32;34469;-81
2023/05/17 09:29:07;;;;;;;;;;;;;;;16.75;90.18;99384.16;4437489;32;34080;-80
2023/05/17 09:31:35;;;;;;;;;;;;;;;18.30;84.05;99377.91;4433662;32;33689;-81
2023/05/17 09:34:02;;;;;;;;;;;;;;;19.25;78.71;99383.63;4443408;32;33871;-80
2023/05/17 09:36:30;;;;;;;;;;;;;;;19.97;73.79;99389.91;4447515;32;34901;-81
2023/05/17 09:39:03;;;;;;;;;;;;;;;17.03;88.26;99407.22;4445040;32;33696;-80
2023/05/17 09:41:31;;;;;;;;;;;;;;;18.19;82.84;99401.41;4427194;32;34492;-81
2023/05/17 09:43:59;;;;;;;;;;;;;;;18.53;82.14;99420.00;4430381;32;33509;-81
2023/05/17 09:46:27;;;;;;;;;;;;;;;17.71;83.58;99420.16;4431630;32;34745;-82
2023/05/17 09:48:55;;;;;;;;;;;;;;;18.54;79.32;99419.13;4429943;32;32455;-84
2023/05/17 09:51:37;;;;;;;;;;;;;;;18.40;76.82;99426.03;4426942;32;32856;-82
2023/05/17 09:54:05;;;;;;;;;;;;;;;17.75;78.49;99433.34;4440621;32;33668;-83
2023/05/17 09:56:33;;;;;;;;;;;;;;;16.01;89.20;99435.31;4435708;32;33744;-81
2023/05/17 09:59:01;;;;;;;;;;;;;;;18.06;79.74;99425.78;4425368;32;34381;-78
2023/05/17 10:01:29;;;;;;;;;;;;;;;16.64;86.93;99437.19;4439319;32;33277;-81
2023/05/17 10:04:03;;;;;;;;;;;;;;;16.41;90.24;99435.97;4446406;32;33513;-80
2023/05/17 10:06:31;;;;;;;;;;;;;;;15.67;92.17;99437.31;4433966;32;33744;-80
2023/05/17 10:09:15;;;;;;;;;;;;;;;16.22;88.90;99440.88;4434243;32;34240;-81
2023/05/17 10:11:45;;;;;;;;;;;;;;;17.24;85.61;99443.22;4424643;32;35101;-80
2023/05/17 10:14:17;;;;;;;;;;;;;;;16.14;89.89;99441.62;4432103;32;31725;-81
2023/05/17 10:16:45;;;;;;;;;;;;;;;17.29;82.66;99451.16;4428760;32;33678;-81
2023/05/17 10:19:12;;;;;;;;;;;;;;;15.87;91.26;99454.22;4428654;32;33814;-82
2023/05/17 10:21:39;;;;;;;;;;;;;;;17.19;84.00;99449.28;4431468;32;35055;-81
2023/05/17 10:24:07;;;;;;;;;;;;;;;17.18;83.39;99452.75;4440803;32;34115;-81
2023/05/17 10:26:35;;;;;;;;;;;;;;;18.21;77.61;99446.84;4414188;32;34116;-81
2023/05/17 10:29:02;;;;;;;;;;;;;;;17.40;81.31;99449.56;4412649;32;33411;-80
2023/05/17 10:31:32;;;;;;;;;;;;;;;17.42;79.06;99450.44;4430251;32;33416;-81
2023/05/17 10:34:00;;;;;;;;;;;;;;;18.61;74.72;99441.91;4426083;32;33179;-81
2023/05/17 10:36:27;;;;;;;;;;;;;;;16.65;83.75;99457.25;4429271;32;34416;-80
2023/05/17 10:38:55;;;;;;;;;;;;;;;18.14;77.13;99449.41;4433498;32;33453;-81
2023/05/17 10:41:24;;;;;;;;;;;;;;;17.36;80.80;99459.94;4433718;32;34319;-81
2023/05/17 10:43:52;;;;;;;;;;;;;;;17.60;79.18;99467.22;4431261;32;33812;-79
2023/05/17 10:46:22;;;;;;;;;;;;;;;16.94;81.90;99469.91;4447519;32;33875;-82
2023/05/17 10:48:50;;;;;;;;;;;;;;;16.49;86.38;99470.94;4451714;32;34891;-81
2023/05/17 10:51:36;;;;;;;;;;;;;;;16.15;86.67;99467.78;4430551;32;34345;-81
2023/05/17 10:54:07;;;;;;;;;;;;;;;15.71;89.21;99473.06;4440600;32;32977;-81
2023/05/17 10:56:38;;;;;;;;;;;;;;;16.35;87.84;99472.47;4442128;32;34582;-82
2023/05/17 10:59:15;;;;;;;;;;;;;;;17.31;81.74;99470.38;4449356;32;33822;-79
2023/05/17 11:01:53;;;;;;;;;;;;;;;16.42;84.04;99474.34;4450156;32;34598;-79
2023/05/17 11:04:24;;;;;;;;;;;;;;;18.22;77.45;99474.84;4447220;32;33501;-81
2023/05/17 11:07:23;;;;;;;;;;;;;;;17.92;78.32;99479.81;4427856;32;34762;-80
2023/05/17 11:09:54;;;;;;;;;;;;;;;16.70;83.48;99486.09;4433940;32;34752;-80
2023/05/17 11:12:32;;;;;;;;;;;;;;;16.89;85.17;99492.50;4444060;32;32216;-79
2023/05/17 11:15:06;;;;;;;;;;;;;;;16.54;85.51;99487.59;4446381;32;33794;-79
2023/05/17 11:17:41;;;;;;;;;;;;;;;15.85;88.38;99496.84;4441782;32;33632;-78
2023/05/17 11:20:11;;;;;;;;;;;;;;;16.00;86.79;99496.28;4450217;32;36793;-79
2023/05/17 11:22:41;;;;;;;;;;;;;;;15.69;88.55;99501.75;4427523;32;34421;-81
2023/05/17 11:25:12;;;;;;;;;;;;;;;17.03;82.84;99500.53;4427485;32;34025;-79
2023/05/17 11:27:49;;;;;;;;;;;;;;;15.25;90.63;99503.47;4447854;32;34056;-78
2023/05/17 11:30:30;;;;;;;;;;;;;;;16.67;84.38;99502.62;4437890;32;33956;-80
2023/05/17 11:32:59;;;;;;;;;;;;;;;17.82;76.74;99516.34;4449190;32;33887;-79
2023/05/17 11:35:27;;;;;;;;;;;;;;;15.37;87.66;99514.16;4438069;32;33311;-78
2023/05/17 11:38:14;;;;;;;;;;;;;;;17.08;81.64;99507.59;4444050;32;34063;-78
2023/05/17 11:40:43;;;;;;;;;;;;;;;16.47;81.80;99507.50;4431332;32;34958;-77
2023/05/17 11:43:17;;;;;;;;;;;;;;;16.33;80.89;99511.66;4440570;32;32379;-80
2023/05/17 11:45:52;;;;;;;;;;;;;;;16.11;83.48;99515.63;4422619;32;31753;-80
2023/05/17 11:48:20;;;;;;;;;;;;;;;16.29;82.47;99521.16;4437625;32;34858;-80
2023/05/17 11:50:49;;;;;;;;;;;;;;;17.72;76.22;99514.50;4427602;32;33892;-80
2023/05/17 11:53:16;;;;;;;;;;;;;;;17.03;77.87;99511.00;4428543;32;33591;-80
2023/05/17 11:55:49;;;;;;;;;;;;;;;17.31;77.52;99517.50;4431427;32;33508;-80
2023/05/17 11:58:18;;;;;;;;;;;;;;;16.41;83.41;99522.22;4443598;32;33984;-80
2023/05/17 12:00:50;;;;;;;;;;;;;;;16.66;80.03;99516.53;4433410;32;34112;-80
2023/05/17 12:03:18;;;;;;;;;;;;;;;16.30;81.25;99517.72;4415693;32;34801;-79
2023/05/17 12:05:46;;;;;;;;;;;;;;;16.35;83.51;99519.53;4441565;32;33968;-81
2023/05/17 12:08:17;;;;;;;;;;;;;;;15.56;86.46;99525.84;4432216;32;33963;-80
2023/05/17 12:10:48;;;;;;;;;;;;;;;17.22;79.62;99523.47;4450357;32;34209;-81
2023/05/17 12:13:16;;;;;;;;;;;;;;;16.86;80.20;99518.59;4426576;32;33308;-80
2023/05/17 12:15:44;;;;;;;;;;;;;;;17.58;76.79;99521.34;4443548;32;33329;-80
2023/05/17 12:18:11;;;;;;;;;;;;;;;17.21;78.15;99526.06;4418911;32;33562;-79
2023/05/17 12:20:51;;;;;;;;;;;;;;;16.56;79.62;99532.94;4432975;32;34125;-80
2023/05/17 12:23:24;;;;;;;;;;;;;;;16.44;81.68;99532.75;4425458;32;33972;-81
2023/05/17 12:26:00;;;;;;;;;;;;;;;15.68;84.29;99530.44;4444113;32;31922;-79
2023/05/17 12:28:28;;;;;;;;;;;;;;;17.17;78.54;99529.50;4425838;32;34161;-80
2023/05/17 12:31:01;;;;;;;;;;;;;;;16.81;79.72;99525.50;4444107;32;34476;-78
2023/05/17 12:33:29;;;;;;;;;;;;;;;17.35;79.18;99521.91;4435846;32;34503;-79
2023/05/17 12:35:57;;;;;;;;;;;;;;;17.21;79.42;99526.06;4421346;32;33300;-79
2023/05/17 12:38:27;;;;;;;;;;;;;;;17.37;78.67;99522.81;4428365;32;34911;-81
2023/05/17 12:40:54;;;;;;;;;;;;;;;16.96;81.22;99533.59;4433417;32;34628;-79
2023/05/17 12:43:23;;;;;;;;;;;;;;;17.26;80.47;99534.88;4435956;32;34275;-79
2023/05/17 12:45:51;;;;;;;;;;;;;;;16.74;80.63;99534.09;4438754;32;33159;-79
2023/05/17 12:48:22;;;;;;;;;;;;;;;17.33;78.36;99535.84;4432583;32;35038;-80
2023/05/17 12:50:51;;;;;;;;;;;;;;;18.41;73.88;99538.81;4434786;32;33617;-80
2023/05/17 12:53:18;;;;;;;;;;;;;;;18.15;74.30;99540.31;4442371;32;35540;-80
2023/05/17 12:55:45;;;;;;;;;;;;;;;18.22;73.93;99545.63;4430709;32;33324;-78